createdAt,value
2024-05-09T00:00:45.785Z,10.81
2024-05-09T00:03:13.531Z,10.70
2024-05-09T00:05:41.930Z,10.54
2024-05-09T00:08:10.411Z,10.60
2024-05-09T00:10:39.595Z,10.48
2024-05-09T00:13:08.801Z,10.53
2024-05-09T00:15:36.523Z,10.53
2024-05-09T00:18:05.236Z,10.48
2024-05-09T00:20:38.447Z,10.40
2024-05-09T00:23:12.401Z,10.39
2024-05-09T00:25:42.994Z,10.37
2024-05-09T00:28:11.481Z,10.31
2024-05-09T00:30:38.359Z,10.29
2024-05-09T00:33:06.702Z,10.21
2024-05-09T00:35:34.797Z,10.20
2024-05-09T00:38:01.631Z,10.20
2024-05-09T00:40:39.552Z,10.15
2024-05-09T00:43:09.719Z,10.11
2024-05-09T00:45:36.443Z,10.09
2024-05-09T00:48:06.743Z,10.01
2024-05-09T00:50:37.565Z,10.07
2024-05-09T00:53:06.403Z,10.10
2024-05-09T00:55:35.035Z,10.09
2024-05-09T00:58:02.482Z,9.91
2024-05-09T01:00:37.771Z,10.02
2024-05-09T01:03:07.616Z,10.04
2024-05-09T01:05:35.330Z,10.00
2024-05-09T01:08:02.991Z,9.90
2024-05-09T01:10:34.527Z,9.81
2024-05-09T01:13:06.469Z,9.91
2024-05-09T01:15:34.639Z,9.85
2024-05-09T01:18:06.925Z,9.83
2024-05-09T01:20:41.073Z,9.72
2024-05-09T01:23:11.151Z,9.74
2024-05-09T01:25:38.268Z,9.82
2024-05-09T01:28:06.056Z,9.73
2024-05-09T01:30:35.901Z,9.78
2024-05-09T01:33:09.590Z,9.67
2024-05-09T01:35:40.871Z,9.64
2024-05-09T01:38:09.671Z,9.45
2024-05-09T01:40:39.237Z,9.53
2024-05-09T01:43:08.896Z,9.56
2024-05-09T01:45:36.670Z,9.56
2024-05-09T01:48:03.892Z,9.42
2024-05-09T01:50:38.360Z,9.54
2024-05-09T01:53:13.954Z,9.52
2024-05-09T01:55:41.514Z,9.50
2024-05-09T01:58:08.752Z,9.31
2024-05-09T02:00:40.337Z,9.35
2024-05-09T02:03:13.564Z,9.28
2024-05-09T02:05:43.762Z,9.23
2024-05-09T02:08:15.489Z,9.22
2024-05-09T02:10:44.112Z,9.21
2024-05-09T02:13:11.123Z,9.27
2024-05-09T02:15:38.062Z,9.28
2024-05-09T02:18:05.497Z,9.06
2024-05-09T02:20:36.272Z,9.06
2024-05-09T02:23:05.997Z,9.13
2024-05-09T02:25:33.249Z,9.12
2024-05-09T02:28:00.028Z,8.99
2024-05-09T02:30:37.715Z,8.99
2024-05-09T02:33:08.988Z,8.98
2024-05-09T02:35:36.615Z,8.94
2024-05-09T02:38:03.632Z,8.89
2024-05-09T02:40:36.751Z,8.85
2024-05-09T02:43:06.524Z,8.76
2024-05-09T02:45:33.544Z,8.89
2024-05-09T02:48:00.941Z,8.78
2024-05-09T02:50:34.619Z,8.73
2024-05-09T02:53:06.359Z,8.71
2024-05-09T02:55:33.936Z,8.66
2024-05-09T02:58:00.634Z,8.56
2024-05-09T03:00:36.309Z,8.65
2024-05-09T03:03:08.331Z,8.70
2024-05-09T03:05:36.506Z,8.71
2024-05-09T03:08:03.688Z,8.53
2024-05-09T03:10:35.882Z,8.49
2024-05-09T03:13:14.728Z,8.63
2024-05-09T03:15:43.086Z,8.64
2024-05-09T03:18:10.678Z,8.56
2024-05-09T03:20:38.052Z,8.61
2024-05-09T03:23:08.091Z,8.59
2024-05-09T03:25:35.874Z,8.47
2024-05-09T03:28:02.710Z,8.52
2024-05-09T03:30:36.381Z,8.34
2024-05-09T03:33:12.904Z,8.51
2024-05-09T03:35:40.902Z,8.53
2024-05-09T03:38:07.688Z,8.46
2024-05-09T03:40:34.449Z,8.55
2024-05-09T03:43:01.110Z,8.44
2024-05-09T03:45:27.838Z,8.38
2024-05-09T03:47:54.793Z,8.47
2024-05-09T03:50:29.856Z,8.45
2024-05-09T03:53:01.644Z,8.43
2024-05-09T03:55:28.570Z,8.38
2024-05-09T03:57:55.239Z,8.24
2024-05-09T04:00:30.915Z,8.37
2024-05-09T04:03:04.454Z,8.41
2024-05-09T04:05:32.659Z,8.39
2024-05-09T04:07:59.549Z,8.45
2024-05-09T04:10:32.827Z,8.39
2024-05-09T04:13:01.515Z,8.49
2024-05-09T04:15:28.248Z,8.51
2024-05-09T04:17:55.835Z,8.39
2024-05-09T04:20:33.405Z,8.36
2024-05-09T04:23:06.713Z,8.45
2024-05-09T04:25:33.969Z,8.48
2024-05-09T04:28:00.683Z,8.47
2024-05-09T04:30:36.365Z,8.45
2024-05-09T04:33:09.263Z,8.58
2024-05-09T04:35:38.406Z,8.56
2024-05-09T04:38:05.880Z,8.66
2024-05-09T04:40:35.804Z,8.66
2024-05-09T04:43:13.443Z,8.72
2024-05-09T04:45:40.582Z,8.77
2024-05-09T04:48:08.204Z,8.72
2024-05-09T04:50:38.320Z,8.75
2024-05-09T04:53:10.847Z,8.88
2024-05-09T04:55:39.043Z,9.00
2024-05-09T04:58:08.791Z,9.19
2024-05-09T05:00:38.655Z,9.21
2024-05-09T05:03:10.114Z,9.25
2024-05-09T05:05:42.545Z,9.40
2024-05-09T05:08:17.571Z,9.46
2024-05-09T05:10:45.836Z,9.52
2024-05-09T05:13:18.099Z,9.59
2024-05-09T05:15:49.774Z,9.71
2024-05-09T05:18:17.213Z,9.82
2024-05-09T05:20:44.353Z,9.88
2024-05-09T05:23:13.558Z,9.92
2024-05-09T05:25:41.281Z,9.87
2024-05-09T05:28:08.250Z,10.19
2024-05-09T05:30:37.580Z,10.11
2024-05-09T05:33:06.273Z,10.40
2024-05-09T05:35:34.361Z,10.49
2024-05-09T05:38:01.560Z,10.51
2024-05-09T05:40:36.170Z,10.72
2024-05-09T05:43:05.914Z,10.84
2024-05-09T05:45:32.903Z,11.10
2024-05-09T05:48:00.276Z,11.23
2024-05-09T05:50:32.986Z,11.48
2024-05-09T05:53:03.422Z,11.62
2024-05-09T05:55:30.256Z,11.65
2024-05-09T05:57:56.907Z,11.90
2024-05-09T06:00:29.960Z,11.90
2024-05-09T06:03:05.068Z,11.92
2024-05-09T06:05:32.512Z,12.02
2024-05-09T06:07:59.580Z,12.21
2024-05-09T06:10:34.844Z,12.40
2024-05-09T06:13:05.655Z,12.45
2024-05-09T06:15:32.346Z,12.57
2024-05-09T06:17:59.481Z,12.52
2024-05-09T06:20:34.518Z,12.86
2024-05-09T06:23:04.675Z,12.82
2024-05-09T06:25:31.768Z,13.02
2024-05-09T06:28:00.216Z,13.12
2024-05-09T06:30:36.539Z,13.10
2024-05-09T06:33:08.824Z,13.10
2024-05-09T06:35:36.985Z,13.27
2024-05-09T06:38:04.200Z,13.25
2024-05-09T06:40:37.248Z,13.32
2024-05-09T06:43:18.162Z,13.51
2024-05-09T06:45:50.444Z,13.60
2024-05-09T06:48:19.297Z,13.77
2024-05-09T06:50:46.955Z,13.66
2024-05-09T06:53:14.998Z,13.65
2024-05-09T06:55:41.916Z,13.78
2024-05-09T06:58:11.514Z,13.77
2024-05-09T07:00:40.724Z,13.69
2024-05-09T07:03:15.867Z,13.95
2024-05-09T07:05:46.256Z,14.07
2024-05-09T07:08:14.017Z,14.23
2024-05-09T07:10:41.036Z,14.09
2024-05-09T07:13:11.678Z,14.44
2024-05-09T07:15:38.917Z,14.59
2024-05-09T07:18:16.687Z,14.60
2024-05-09T07:20:45.339Z,14.64
2024-05-09T07:23:12.919Z,14.62
2024-05-09T07:25:40.914Z,14.75
2024-05-09T07:28:15.919Z,14.77
2024-05-09T07:30:42.932Z,14.91
2024-05-09T07:33:09.959Z,14.91
2024-05-09T07:35:36.855Z,14.64
2024-05-09T07:38:03.726Z,15.12
2024-05-09T07:40:35.897Z,15.19
2024-05-09T07:43:15.901Z,15.30
2024-05-09T07:45:51.354Z,15.17
2024-05-09T07:52:38.602Z,15.44
2024-05-09T07:53:46.937Z,15.72
2024-05-09T07:56:17.411Z,15.67
2024-05-09T07:58:45.758Z,15.62
2024-05-09T08:01:12.653Z,15.76
2024-05-09T08:03:39.607Z,15.75
2024-05-09T08:06:06.415Z,15.97
2024-05-09T08:08:33.109Z,15.82
2024-05-09T08:10:59.834Z,15.46
2024-05-09T08:13:26.538Z,16.04
2024-05-09T08:15:53.335Z,16.13
2024-05-09T08:18:20.345Z,16.06
2024-05-09T08:20:48.824Z,16.18
2024-05-09T08:23:15.831Z,16.13
2024-05-09T08:25:42.555Z,16.04
2024-05-09T08:28:10.916Z,16.19
2024-05-09T08:30:38.409Z,16.32
2024-05-09T08:33:06.934Z,16.14
2024-05-09T08:35:34.860Z,16.08
2024-05-09T08:38:03.716Z,16.37
2024-05-09T08:40:35.600Z,16.22
2024-05-09T08:43:08.224Z,16.56
2024-05-09T08:45:35.997Z,16.33
2024-05-09T08:48:05.885Z,16.47
2024-05-09T08:50:38.662Z,16.63
2024-05-09T08:53:07.981Z,16.85
2024-05-09T08:55:37.394Z,16.82
2024-05-09T08:58:07.372Z,16.93
2024-05-09T09:00:37.420Z,16.96
2024-05-09T09:03:08.715Z,16.93
2024-05-09T09:05:39.320Z,17.11
2024-05-09T09:08:08.130Z,17.23
2024-05-09T09:10:35.350Z,17.19
2024-05-09T09:13:04.213Z,17.39
2024-05-09T09:15:31.276Z,17.48
2024-05-09T09:18:01.720Z,17.56
2024-05-09T09:20:36.385Z,17.57
2024-05-09T09:23:04.566Z,17.69
2024-05-09T09:25:31.839Z,17.84
2024-05-09T09:27:59.190Z,17.72
2024-05-09T09:30:36.334Z,17.96
2024-05-09T09:33:06.252Z,17.78
2024-05-09T09:35:34.315Z,17.70
2024-05-09T09:38:02.983Z,17.83
2024-05-09T09:40:42.488Z,17.98
2024-05-09T09:43:23.049Z,18.00
2024-05-09T09:45:51.305Z,17.98
2024-05-09T09:48:20.281Z,18.11
2024-05-09T09:50:48.366Z,18.12
2024-05-09T09:53:16.414Z,18.20
2024-05-09T09:55:43.841Z,18.40
2024-05-09T09:58:13.452Z,18.39
2024-05-09T10:00:41.827Z,18.52
2024-05-09T10:03:09.127Z,18.59
2024-05-09T10:05:36.593Z,18.52
2024-05-09T10:08:07.260Z,18.48
2024-05-09T10:10:35.730Z,18.47
2024-05-09T10:13:07.499Z,18.44
2024-05-09T10:15:47.753Z,18.64
2024-05-09T10:18:15.258Z,18.72
2024-05-09T10:20:43.394Z,18.71
2024-05-09T10:23:27.790Z,18.79
2024-05-09T10:26:03.029Z,18.76
2024-05-09T10:28:35.327Z,18.81
2024-05-09T10:31:13.149Z,18.83
2024-05-09T10:33:52.639Z,18.95
2024-05-09T10:36:23.637Z,18.80
2024-05-09T10:38:52.482Z,18.75
2024-05-09T10:41:20.498Z,18.95
2024-05-09T10:43:47.983Z,19.05
2024-05-09T10:46:15.701Z,19.18
2024-05-09T10:48:43.882Z,19.06
2024-05-09T10:51:10.930Z,19.12
2024-05-09T10:53:42.519Z,19.04
2024-05-09T10:56:09.781Z,19.17
2024-05-09T10:58:37.275Z,18.97
2024-05-09T11:01:06.990Z,19.10
2024-05-09T11:03:35.338Z,19.16
2024-05-09T11:06:02.695Z,19.20
2024-05-09T11:08:31.794Z,19.22
2024-05-09T11:10:59.699Z,19.11
2024-05-09T11:13:27.196Z,19.09
2024-05-09T11:15:54.026Z,19.35
2024-05-09T11:18:25.449Z,19.41
2024-05-09T11:20:54.213Z,19.38
2024-05-09T11:23:22.805Z,19.16
2024-05-09T11:25:53.434Z,19.12
2024-05-09T11:28:21.082Z,19.12
2024-05-09T11:30:48.846Z,19.39
2024-05-09T11:33:17.197Z,19.39
2024-05-09T11:35:44.727Z,19.51
2024-05-09T11:38:11.688Z,19.59
2024-05-09T11:40:38.813Z,19.66
2024-05-09T11:43:06.003Z,19.39
2024-05-09T11:45:32.962Z,19.53
2024-05-09T11:47:59.909Z,19.63
2024-05-09T11:50:32.735Z,19.86
2024-05-09T11:53:02.313Z,19.61
2024-05-09T11:55:29.179Z,19.66
2024-05-09T11:57:56.780Z,19.51
2024-05-09T12:02:54.229Z,19.55
2024-05-09T12:05:21.105Z,19.33
2024-05-09T12:07:48.000Z,19.51
2024-05-09T12:10:19.631Z,19.57
2024-05-09T12:12:49.285Z,19.59
2024-05-09T12:15:16.067Z,19.55
2024-05-09T12:17:42.948Z,19.51
2024-05-09T12:20:17.505Z,19.54
2024-05-09T12:22:52.883Z,19.76
2024-05-09T12:25:19.658Z,19.68
2024-05-09T12:27:46.369Z,19.95
2024-05-09T12:30:20.714Z,19.86
2024-05-09T12:32:55.184Z,19.78
2024-05-09T12:35:21.929Z,19.73
2024-05-09T12:37:48.566Z,19.69
2024-05-09T12:40:22.954Z,19.59
2024-05-09T12:42:58.176Z,19.70
2024-05-09T12:45:24.909Z,19.53
2024-05-09T12:47:51.701Z,19.59
2024-05-09T12:50:25.244Z,19.72
2024-05-09T12:52:58.229Z,19.82
2024-05-09T12:55:25.010Z,19.53
2024-05-09T12:57:51.768Z,19.70
2024-05-09T13:00:24.045Z,19.82
2024-05-09T13:02:57.935Z,19.85
2024-05-09T13:05:24.843Z,19.67
2024-05-09T13:07:51.652Z,19.71
2024-05-09T13:10:28.664Z,19.28
2024-05-09T13:12:59.439Z,19.57
2024-05-09T13:15:26.485Z,19.61
2024-05-09T13:17:54.105Z,19.56
2024-05-09T13:20:29.260Z,19.69
2024-05-09T13:23:01.864Z,19.69
2024-05-09T13:25:28.694Z,19.74
2024-05-09T13:27:56.424Z,19.53
2024-05-09T13:30:29.774Z,19.69
2024-05-09T13:33:06.577Z,19.34
2024-05-09T13:35:35.190Z,19.72
2024-05-09T13:38:02.929Z,19.53
2024-05-09T13:40:34.199Z,19.59
2024-05-09T13:43:04.558Z,19.68
2024-05-09T13:45:31.684Z,19.60
2024-05-09T13:47:58.862Z,19.59
2024-05-09T13:50:32.893Z,19.54
2024-05-09T13:53:02.704Z,19.48
2024-05-09T13:55:29.544Z,19.49
2024-05-09T13:57:56.633Z,19.79
2024-05-09T14:00:37.753Z,19.68
2024-05-09T14:03:10.489Z,19.89
2024-05-09T14:05:37.412Z,19.75
2024-05-09T14:08:04.653Z,19.62
2024-05-09T14:10:32.447Z,19.66
2024-05-09T14:13:01.050Z,19.61
2024-05-09T14:15:28.122Z,19.80
2024-05-09T14:17:55.470Z,19.60
2024-05-09T14:20:30.454Z,19.54
2024-05-09T14:23:01.925Z,19.61
2024-05-09T14:25:30.130Z,19.57
2024-05-09T14:28:00.270Z,19.50
2024-05-09T14:30:34.742Z,19.49
2024-05-09T14:33:05.905Z,19.40
2024-05-09T14:35:33.611Z,19.45
2024-05-09T14:38:00.484Z,19.22
2024-05-09T14:40:37.170Z,19.20
2024-05-09T14:43:10.347Z,19.10
2024-05-09T14:45:37.392Z,18.79
2024-05-09T14:48:04.708Z,19.23
2024-05-09T14:50:36.806Z,18.99
2024-05-09T14:53:07.633Z,19.07
2024-05-09T14:55:37.357Z,18.98
2024-05-09T14:58:09.711Z,18.75
2024-05-09T15:00:46.072Z,18.97
2024-05-09T15:03:17.399Z,18.95
2024-05-09T15:05:45.070Z,18.91
2024-05-09T15:08:11.949Z,18.87
2024-05-09T15:10:39.099Z,18.94
2024-05-09T15:13:07.891Z,18.91
2024-05-09T15:15:36.944Z,18.90
2024-05-09T15:18:04.859Z,18.73
2024-05-09T15:20:35.873Z,18.89
2024-05-09T15:23:06.229Z,18.96
2024-05-09T15:25:34.010Z,18.87
2024-05-09T15:28:00.899Z,18.82
2024-05-09T15:30:31.067Z,18.85
2024-05-09T15:33:00.758Z,18.90
2024-05-09T15:35:27.915Z,18.93
2024-05-09T15:37:54.944Z,18.85
2024-05-09T15:40:31.010Z,18.82
2024-05-09T15:43:05.373Z,18.73
2024-05-09T15:45:32.628Z,18.87
2024-05-09T15:48:00.017Z,18.71
2024-05-09T15:50:35.727Z,18.53
2024-05-09T15:53:07.018Z,18.59
2024-05-09T15:55:34.857Z,18.69
2024-05-09T15:58:02.679Z,18.78
2024-05-09T16:00:37.374Z,18.56
2024-05-09T16:03:08.465Z,18.61
2024-05-09T16:05:36.632Z,18.80
2024-05-09T16:08:03.991Z,18.64
2024-05-09T16:10:33.136Z,18.70
2024-05-09T16:13:01.789Z,18.48
2024-05-09T16:15:28.982Z,18.37
2024-05-09T16:17:56.130Z,18.45
2024-05-09T16:20:34.202Z,18.46
2024-05-09T16:23:06.409Z,18.43
2024-05-09T16:25:33.290Z,18.44
2024-05-09T16:28:00.218Z,18.34
2024-05-09T16:30:31.916Z,18.40
2024-05-09T16:33:03.192Z,18.29
2024-05-09T16:35:30.360Z,18.31
2024-05-09T16:37:57.349Z,18.24
2024-05-09T16:40:33.178Z,18.10
2024-05-09T16:43:04.982Z,18.05
2024-05-09T16:45:31.990Z,18.01
2024-05-09T16:47:59.712Z,18.02
2024-05-09T16:50:32.371Z,18.02
2024-05-09T16:53:01.793Z,17.79
2024-05-09T16:55:31.035Z,17.94
2024-05-09T16:57:58.341Z,17.88
2024-05-09T17:00:35.595Z,17.87
2024-05-09T17:03:09.639Z,17.87
2024-05-09T17:05:37.135Z,17.93
2024-05-09T17:08:04.390Z,17.77
2024-05-09T17:10:33.817Z,17.64
2024-05-09T17:13:06.708Z,17.75
2024-05-09T17:15:35.282Z,17.49
2024-05-09T17:18:02.591Z,17.69
2024-05-09T17:20:33.890Z,17.63
2024-05-09T17:23:04.563Z,17.53
2024-05-09T17:25:31.941Z,17.42
2024-05-09T17:28:05.317Z,17.48
2024-05-09T17:30:36.588Z,17.33
2024-05-09T17:33:06.071Z,17.54
2024-05-09T17:35:32.939Z,17.49
2024-05-09T17:38:01.404Z,17.26
2024-05-09T17:40:33.460Z,17.43
2024-05-09T17:43:04.177Z,17.29
2024-05-09T17:45:31.945Z,17.38
2024-05-09T17:47:59.457Z,17.44
2024-05-09T17:50:31.904Z,17.36
2024-05-09T17:53:03.543Z,17.35
2024-05-09T17:55:30.477Z,17.01
2024-05-09T17:57:57.471Z,17.27
2024-05-09T18:00:33.744Z,17.23
2024-05-09T18:03:06.233Z,17.25
2024-05-09T18:05:37.611Z,17.30
2024-05-09T18:08:06.280Z,17.26
2024-05-09T18:10:37.189Z,17.17
2024-05-09T18:13:11.144Z,17.24
2024-05-09T18:15:38.900Z,17.16
2024-05-09T18:18:06.604Z,17.25
2024-05-09T18:20:41.606Z,17.17
2024-05-09T18:23:13.141Z,17.32
2024-05-09T18:25:40.363Z,17.21
2024-05-09T18:28:07.778Z,17.22
2024-05-09T18:30:36.525Z,17.14
2024-05-09T18:33:06.416Z,17.17
2024-05-09T18:35:37.007Z,17.11
2024-05-09T18:38:04.691Z,17.11
2024-05-09T18:40:35.353Z,16.96
2024-05-09T18:43:07.406Z,17.09
2024-05-09T18:45:39.474Z,16.94
2024-05-09T18:48:08.184Z,16.91
2024-05-09T18:50:39.165Z,16.85
2024-05-09T18:53:10.077Z,16.89
2024-05-09T18:55:37.163Z,16.58
2024-05-09T18:58:04.989Z,16.81
2024-05-09T19:00:36.230Z,16.64
2024-05-09T19:03:11.830Z,16.74
2024-05-09T19:05:41.690Z,16.62
2024-05-09T19:08:09.431Z,16.33
2024-05-09T19:10:38.375Z,16.43
2024-05-09T19:13:09.234Z,16.45
2024-05-09T19:15:40.378Z,16.37
2024-05-09T19:18:07.835Z,16.21
2024-05-09T19:20:36.465Z,15.92
2024-05-09T19:23:05.390Z,16.30
2024-05-09T19:25:32.915Z,16.15
2024-05-09T19:28:00.311Z,16.14
2024-05-09T19:30:36.548Z,16.02
2024-05-09T19:33:07.902Z,16.04
2024-05-09T19:35:34.783Z,16.05
2024-05-09T19:38:01.958Z,16.11
2024-05-09T19:40:31.985Z,16.13
2024-05-09T19:43:05.113Z,16.09
2024-05-09T19:45:33.899Z,16.01
2024-05-09T19:48:01.867Z,16.00
2024-05-09T19:50:37.014Z,16.05
2024-05-09T19:53:09.701Z,15.98
2024-05-09T19:55:36.729Z,15.84
2024-05-09T19:58:05.440Z,15.95
2024-05-09T20:00:39.840Z,15.99
2024-05-09T20:03:09.614Z,15.85
2024-05-09T20:05:37.594Z,15.84
2024-05-09T20:08:05.729Z,15.81
2024-05-09T20:10:35.029Z,15.75
2024-05-09T20:13:04.604Z,15.84
2024-05-09T20:15:33.644Z,15.65
2024-05-09T20:18:00.578Z,15.65
2024-05-09T20:20:35.544Z,15.67
2024-05-09T20:23:06.371Z,15.65
2024-05-09T20:25:33.262Z,15.57
2024-05-09T20:28:00.740Z,15.58
2024-05-09T20:30:32.193Z,15.36
2024-05-09T20:33:02.959Z,15.58
2024-05-09T20:35:32.594Z,15.54
2024-05-09T20:38:00.822Z,15.32
2024-05-09T20:40:32.687Z,15.35
2024-05-09T20:43:03.176Z,15.38
2024-05-09T20:45:30.080Z,15.31
2024-05-09T20:47:57.314Z,15.40
2024-05-09T20:50:35.092Z,15.40
2024-05-09T20:53:05.850Z,15.42
2024-05-09T20:55:32.598Z,15.36
2024-05-09T20:57:59.384Z,14.61
2024-05-09T21:00:34.879Z,15.32
2024-05-09T21:03:07.208Z,15.24
2024-05-09T21:05:35.185Z,15.23
2024-05-09T21:08:02.584Z,15.05
2024-05-09T21:10:32.933Z,15.14
2024-05-09T21:13:02.857Z,15.14
2024-05-09T21:15:30.356Z,14.92
2024-05-09T21:17:57.092Z,15.03
2024-05-09T21:20:30.502Z,15.11
2024-05-09T21:22:58.965Z,14.99
2024-05-09T21:25:25.902Z,14.90
2024-05-09T21:27:53.225Z,15.04
2024-05-09T21:32:51.026Z,15.02
2024-05-09T21:35:18.465Z,14.95
2024-05-09T21:37:45.210Z,14.95
2024-05-09T21:40:16.965Z,15.03
2024-05-09T21:42:50.843Z,15.02
2024-05-09T21:45:17.609Z,14.97
2024-05-09T21:47:44.550Z,14.97
2024-05-09T21:50:22.055Z,14.94
2024-05-09T21:52:50.186Z,15.00
2024-05-09T21:55:16.948Z,15.01
2024-05-09T21:57:43.651Z,14.84
2024-05-09T22:00:27.933Z,15.00
2024-05-09T22:03:02.001Z,15.02
2024-05-09T22:05:29.060Z,14.98
2024-05-09T22:07:56.435Z,14.97
2024-05-09T22:10:27.183Z,15.01
2024-05-09T22:13:00.149Z,14.98
2024-05-09T22:15:27.064Z,14.97
2024-05-09T22:17:54.949Z,14.99
2024-05-09T22:20:28.986Z,14.92
2024-05-09T22:23:02.753Z,14.86
2024-05-09T22:25:31.042Z,14.83
2024-05-09T22:27:58.968Z,14.86
2024-05-09T22:30:34.351Z,14.74
2024-05-09T22:33:05.851Z,14.61
2024-05-09T22:35:33.078Z,14.80
2024-05-09T22:37:59.911Z,14.75
2024-05-09T22:40:38.195Z,14.68
2024-05-09T22:43:13.329Z,14.68
2024-05-09T22:45:40.320Z,14.63
2024-05-09T22:48:08.246Z,14.60
2024-05-09T22:50:35.236Z,14.60
2024-05-09T22:53:02.055Z,14.43
2024-05-09T22:55:28.985Z,14.48
2024-05-09T22:57:56.075Z,14.52
2024-05-09T23:00:31.435Z,14.47
2024-05-09T23:03:03.646Z,14.50
2024-05-09T23:05:39.108Z,14.50
2024-05-09T23:08:06.179Z,14.41
2024-05-09T23:10:36.660Z,14.39
2024-05-09T23:13:06.841Z,14.50
2024-05-09T23:15:37.233Z,14.45
2024-05-09T23:18:05.194Z,14.37
2024-05-09T23:20:37.488Z,14.47
2024-05-09T23:23:07.523Z,14.47
2024-05-09T23:25:36.808Z,14.26
2024-05-09T23:28:04.227Z,14.13
2024-05-09T23:30:38.609Z,14.36
2024-05-09T23:33:10.356Z,14.33
2024-05-09T23:35:38.613Z,14.37
2024-05-09T23:38:08.950Z,14.22
2024-05-09T23:40:39.720Z,14.29
2024-05-09T23:43:10.641Z,14.23
2024-05-09T23:45:38.751Z,14.23
2024-05-09T23:48:06.251Z,14.25
2024-05-09T23:50:36.537Z,14.24
2024-05-09T23:53:07.785Z,14.27
2024-05-09T23:55:35.908Z,14.20
2024-05-09T23:58:05.801Z,14.08
